createdAt,value
2019-02-20T00:02:10.375Z,90.93
2019-02-20T00:04:41.321Z,79.97
2019-02-20T00:07:11.824Z,88.10
2019-02-20T00:09:42.825Z,95.43
2019-02-20T00:12:13.698Z,85.80
2019-02-20T00:14:44.242Z,81.50
2019-02-20T00:17:15.367Z,78.63
2019-02-20T00:19:46.130Z,85.03
2019-02-20T00:22:16.782Z,82.90
2019-02-20T00:24:47.633Z,77.17
2019-02-20T00:27:18.904Z,76.63
2019-02-20T00:29:49.604Z,73.93
2019-02-20T00:32:20.562Z,73.13
2019-02-20T00:34:51.320Z,77.67
2019-02-20T00:37:22.126Z,70.60
2019-02-20T00:39:54.229Z,68.83
2019-02-20T00:42:24.845Z,75.93
2019-02-20T00:45:03.506Z,76.70
2019-02-20T00:48:02.196Z,78.43
2019-02-20T00:50:33.789Z,77.67
2019-02-20T00:53:26.665Z,77.03
2019-02-20T00:55:57.428Z,77.33
2019-02-20T00:58:28.259Z,75.93
2019-02-20T01:00:59.203Z,73.83
2019-02-20T01:03:30.439Z,85.00
2019-02-20T01:06:01.660Z,84.47
2019-02-20T01:08:32.768Z,86.93
2019-02-20T01:11:08.898Z,83.83
2019-02-20T01:13:40.546Z,82.10
2019-02-20T01:16:11.414Z,91.40
2019-02-20T01:18:42.020Z,85.53
2019-02-20T01:21:13.643Z,94.27
2019-02-20T01:23:44.331Z,96.77
2019-02-20T01:26:15.197Z,87.00
2019-02-20T01:28:45.787Z,100.53
2019-02-20T01:31:17.214Z,103.80
2019-02-20T01:33:47.699Z,91.83
2019-02-20T01:36:18.749Z,97.97
2019-02-20T01:38:49.422Z,91.87
2019-02-20T01:41:20.262Z,97.10
2019-02-20T01:43:51.010Z,111.47
2019-02-20T01:46:21.673Z,96.30
2019-02-20T01:48:52.454Z,101.40
2019-02-20T01:51:23.065Z,92.00
2019-02-20T01:53:53.933Z,102.57
2019-02-20T01:56:24.815Z,95.97
2019-02-20T01:58:56.006Z,90.73
2019-02-20T02:01:26.900Z,82.13
2019-02-20T02:03:57.794Z,88.63
2019-02-20T02:06:28.474Z,98.40
2019-02-20T02:08:59.825Z,97.90
2019-02-20T02:11:30.581Z,88.93
2019-02-20T02:14:01.388Z,97.20
2019-02-20T02:16:32.137Z,92.70
2019-02-20T02:19:02.818Z,115.80
2019-02-20T02:21:34.331Z,97.37
2019-02-20T02:24:04.962Z,97.40
2019-02-20T02:26:35.776Z,100.33
2019-02-20T02:29:06.790Z,107.00
2019-02-20T02:31:37.641Z,101.00
2019-02-20T02:34:08.158Z,94.03
2019-02-20T02:36:38.977Z,104.57
2019-02-20T02:39:09.521Z,103.97
2019-02-20T02:41:41.462Z,97.63
2019-02-20T02:44:12.111Z,91.03
2019-02-20T02:46:43.169Z,87.40
2019-02-20T02:49:13.776Z,83.97
2019-02-20T02:51:44.605Z,82.43
2019-02-20T02:54:15.460Z,85.87
2019-02-20T02:56:46.131Z,91.17
2019-02-20T02:59:16.787Z,88.07
2019-02-20T03:01:47.340Z,81.93
2019-02-20T03:04:18.931Z,79.40
2019-02-20T03:06:49.825Z,92.73
2019-02-20T03:09:20.673Z,79.10
2019-02-20T03:11:51.389Z,90.67
2019-02-20T03:14:22.101Z,91.63
2019-02-20T03:16:52.774Z,80.47
2019-02-20T03:19:23.971Z,78.47
2019-02-20T03:21:54.662Z,81.13
2019-02-20T03:24:25.499Z,85.17
2019-02-20T03:26:56.124Z,90.80
2019-02-20T03:29:26.986Z,80.03
2019-02-20T03:31:58.646Z,77.47
2019-02-20T03:34:29.791Z,72.13
2019-02-20T03:37:00.681Z,79.27
2019-02-20T03:39:31.662Z,90.17
2019-02-20T03:42:03.414Z,80.20
2019-02-20T03:44:34.270Z,71.63
2019-02-20T03:47:04.884Z,78.17
2019-02-20T03:49:36.332Z,69.93
2019-02-20T03:52:06.838Z,66.33
2019-02-20T03:54:38.739Z,64.93
2019-02-20T03:57:09.346Z,73.20
2019-02-20T03:59:40.362Z,70.13
2019-02-20T04:02:11.174Z,81.87
2019-02-20T04:04:41.927Z,69.27
2019-02-20T04:07:12.581Z,81.57
2019-02-20T04:09:43.047Z,65.57
2019-02-20T04:12:14.873Z,61.43
2019-02-20T04:14:45.437Z,55.73
2019-02-20T04:17:16.708Z,53.77
2019-02-20T04:19:47.503Z,51.53
2019-02-20T04:22:18.238Z,51.33
2019-02-20T04:24:48.857Z,43.43
2019-02-20T04:27:19.926Z,52.00
2019-02-20T04:29:50.563Z,46.80
2019-02-20T04:32:21.314Z,47.03
2019-02-20T04:34:52.005Z,56.33
2019-02-20T04:37:22.868Z,58.53
2019-02-20T04:39:54.662Z,56.87
2019-02-20T04:42:25.401Z,58.87
2019-02-20T04:44:56.538Z,64.73
2019-02-20T04:47:27.310Z,63.57
2019-02-20T04:49:57.990Z,58.73
2019-02-20T04:52:29.140Z,57.37
2019-02-20T04:55:00.129Z,56.63
2019-02-20T04:57:31.414Z,60.33
2019-02-20T05:00:02.152Z,65.10
2019-02-20T05:02:34.606Z,68.10
2019-02-20T05:05:06.111Z,60.40
2019-02-20T05:07:36.853Z,64.33
2019-02-20T05:10:08.761Z,63.80
2019-02-20T05:12:39.784Z,67.10
2019-02-20T05:15:10.629Z,69.17
2019-02-20T05:17:41.650Z,60.40
2019-02-20T05:20:12.599Z,63.20
2019-02-20T05:22:43.506Z,61.90
2019-02-20T05:25:14.228Z,72.00
2019-02-20T05:27:44.909Z,54.63
2019-02-20T05:30:15.405Z,54.87
2019-02-20T05:32:45.995Z,57.17
2019-02-20T05:35:16.601Z,58.47
2019-02-20T05:37:47.283Z,60.43
2019-02-20T05:40:17.861Z,60.60
2019-02-20T05:42:48.748Z,54.33
2019-02-20T05:45:19.767Z,66.70
2019-02-20T05:47:50.476Z,66.77
2019-02-20T05:50:21.286Z,59.30
2019-02-20T05:52:52.056Z,59.70
2019-02-20T05:55:22.589Z,61.63
2019-02-20T05:57:53.390Z,57.67
2019-02-20T06:00:25.416Z,53.53
2019-02-20T06:02:55.857Z,59.83
2019-02-20T06:05:26.726Z,50.07
2019-02-20T06:07:57.592Z,52.57
2019-02-20T06:10:28.524Z,58.07
2019-02-20T06:12:59.246Z,55.53
2019-02-20T06:15:30.790Z,55.13
2019-02-20T06:18:01.844Z,53.43
2019-02-20T06:20:33.158Z,53.07
2019-02-20T06:23:03.912Z,48.17
2019-02-20T06:25:34.849Z,47.67
2019-02-20T06:28:06.424Z,52.43
2019-02-20T06:30:36.891Z,50.77
2019-02-20T06:33:07.592Z,58.33
2019-02-20T06:35:38.613Z,49.23
2019-02-20T06:38:10.943Z,50.47
2019-02-20T06:40:42.187Z,47.87
2019-02-20T06:43:12.987Z,51.30
2019-02-20T06:45:43.873Z,54.40
2019-02-20T06:48:14.797Z,50.17
2019-02-20T06:50:45.805Z,54.90
2019-02-20T06:53:16.362Z,60.57
2019-02-20T06:55:47.374Z,49.70
2019-02-20T06:58:18.013Z,52.63
2019-02-20T07:00:49.387Z,48.90
2019-02-20T07:03:20.285Z,49.37
2019-02-20T07:06:30.972Z,51.63
2019-02-20T07:09:33.236Z,47.53
2019-02-20T07:12:41.963Z,56.43
2019-02-20T07:15:49.179Z,54.20
2019-02-20T07:19:00.208Z,43.77
2019-02-20T07:22:03.483Z,48.30
2019-02-20T07:25:14.275Z,53.33
2019-02-20T07:27:58.078Z,49.57
2019-02-20T07:30:29.064Z,46.70
2019-02-20T07:33:00.542Z,44.63
2019-02-20T07:35:31.141Z,43.00
2019-02-20T07:38:01.863Z,48.70
2019-02-20T07:40:34.111Z,47.80
2019-02-20T07:43:05.028Z,42.43
2019-02-20T07:45:35.929Z,46.77
2019-02-20T07:48:07.173Z,48.00
2019-02-20T07:50:38.110Z,44.20
2019-02-20T07:53:10.898Z,46.37
2019-02-20T07:55:41.791Z,40.93
2019-02-20T07:58:12.721Z,42.93
2019-02-20T08:00:43.582Z,44.90
2019-02-20T08:03:15.355Z,47.27
2019-02-20T08:05:46.382Z,42.23
2019-02-20T08:08:17.025Z,44.40
2019-02-20T08:10:48.257Z,46.60
2019-02-20T08:13:19.357Z,44.87
2019-02-20T08:15:50.411Z,41.83
2019-02-20T08:18:21.245Z,49.77
2019-02-20T08:20:52.075Z,41.80
2019-02-20T08:23:23.703Z,37.30
2019-02-20T08:25:54.447Z,44.63
2019-02-20T08:28:25.587Z,43.47
2019-02-20T08:30:56.330Z,47.90
2019-02-20T08:33:27.025Z,42.70
2019-02-20T08:35:57.796Z,45.83
2019-02-20T08:38:28.635Z,40.87
2019-02-20T08:40:59.539Z,46.43
2019-02-20T08:43:30.214Z,49.97
2019-02-20T08:46:01.097Z,42.87
2019-02-20T08:48:31.748Z,47.23
2019-02-20T08:51:02.494Z,46.70
2019-02-20T08:53:33.320Z,44.47
2019-02-20T08:56:04.492Z,45.37
2019-02-20T08:58:35.622Z,47.87
2019-02-20T09:01:06.966Z,41.90
2019-02-20T09:03:38.514Z,49.57
2019-02-20T09:06:09.573Z,44.90
2019-02-20T09:08:40.330Z,43.83
2019-02-20T09:11:11.094Z,47.20
2019-02-20T09:13:42.498Z,47.70
2019-02-20T09:16:13.545Z,43.63
2019-02-20T09:18:44.352Z,43.30
2019-02-20T09:21:15.192Z,40.10
2019-02-20T09:23:46.026Z,50.30
2019-02-20T09:26:17.074Z,44.37
2019-02-20T09:28:48.128Z,46.27
2019-02-20T09:31:19.240Z,48.57
2019-02-20T09:33:50.333Z,40.60
2019-02-20T09:36:21.294Z,45.57
2019-02-20T09:38:52.371Z,51.20
2019-02-20T09:41:23.316Z,50.00
2019-02-20T09:43:54.383Z,46.63
2019-02-20T09:46:25.281Z,49.83
2019-02-20T09:48:56.347Z,43.03
2019-02-20T09:51:27.255Z,41.53
2019-02-20T09:53:58.243Z,40.20
2019-02-20T09:56:29.002Z,38.07
2019-02-20T09:59:00.225Z,38.13
2019-02-20T10:01:32.187Z,46.63
2019-02-20T10:04:03.339Z,35.77
2019-02-20T10:06:33.963Z,45.17
2019-02-20T10:09:05.589Z,40.47
2019-02-20T10:11:36.771Z,39.63
2019-02-20T10:14:08.552Z,48.23
2019-02-20T10:16:39.520Z,35.30
2019-02-20T10:19:10.603Z,54.37
2019-02-20T10:21:41.810Z,32.40
2019-02-20T10:24:12.730Z,45.67
2019-02-20T10:26:43.458Z,34.73
2019-02-20T10:29:14.340Z,33.97
2019-02-20T10:31:46.457Z,31.40
2019-02-20T10:34:17.298Z,37.13
2019-02-20T10:36:49.437Z,37.20
2019-02-20T10:39:20.350Z,28.77
2019-02-20T10:41:51.729Z,34.50
2019-02-20T10:44:22.332Z,30.87
2019-02-20T10:46:53.308Z,39.77
2019-02-20T10:49:23.862Z,41.37
2019-02-20T10:51:54.868Z,29.00
2019-02-20T10:54:25.624Z,35.37
2019-02-20T10:56:57.089Z,28.97
2019-02-20T10:59:27.963Z,31.17
2019-02-20T11:01:58.998Z,45.90
2019-02-20T11:04:30.878Z,40.07
2019-02-20T11:07:01.756Z,37.43
2019-02-20T11:09:34.229Z,34.53
2019-02-20T11:12:05.213Z,34.47
2019-02-20T11:14:37.731Z,36.83
2019-02-20T11:17:09.133Z,32.83
2019-02-20T11:19:39.781Z,36.33
2019-02-20T11:22:10.559Z,39.83
2019-02-20T11:24:41.779Z,35.07
2019-02-20T11:27:12.809Z,42.43
2019-02-20T11:29:43.729Z,44.73
2019-02-20T11:32:14.392Z,32.93
2019-02-20T11:34:45.115Z,38.93
2019-02-20T11:37:16.288Z,33.77
2019-02-20T11:39:48.635Z,42.50
2019-02-20T11:42:19.617Z,33.57
2019-02-20T11:44:50.545Z,36.37
2019-02-20T11:47:21.224Z,29.60
2019-02-20T11:49:51.963Z,35.80
2019-02-20T11:52:22.703Z,34.33
2019-02-20T11:54:53.386Z,29.23
2019-02-20T11:57:24.375Z,30.23
2019-02-20T11:59:55.372Z,25.23
2019-02-20T12:02:26.705Z,31.77
2019-02-20T12:04:57.756Z,39.37
2019-02-20T12:07:28.721Z,27.97
2019-02-20T12:09:59.690Z,25.23
2019-02-20T12:12:30.471Z,26.50
2019-02-20T12:15:01.370Z,32.00
2019-02-20T12:17:34.275Z,29.10
2019-02-20T12:20:05.446Z,27.87
2019-02-20T12:22:37.001Z,20.17
2019-02-20T12:25:08.472Z,29.17
2019-02-20T12:27:39.253Z,22.83
2019-02-20T12:30:11.414Z,22.80
2019-02-20T12:32:42.595Z,32.57
2019-02-20T12:35:13.413Z,26.60
2019-02-20T12:37:43.955Z,22.37
2019-02-20T12:40:14.804Z,28.33
2019-02-20T12:42:45.821Z,30.93
2019-02-20T12:45:16.958Z,28.23
2019-02-20T12:47:47.443Z,35.60
2019-02-20T12:50:18.280Z,29.63
2019-02-20T12:52:48.783Z,34.80
2019-02-20T12:55:19.547Z,36.07
2019-02-20T12:57:50.251Z,35.27
2019-02-20T13:00:22.476Z,27.00
2019-02-20T13:02:53.189Z,27.07
2019-02-20T13:05:24.220Z,29.57
2019-02-20T13:07:54.942Z,25.40
2019-02-20T13:10:25.870Z,19.53
2019-02-20T13:12:56.896Z,28.47
2019-02-20T13:15:27.593Z,23.80
2019-02-20T13:17:58.444Z,26.17
2019-02-20T13:20:29.257Z,19.30
2019-02-20T13:23:00.227Z,30.50
2019-02-20T13:25:30.926Z,30.57
2019-02-20T13:28:01.842Z,21.63
2019-02-20T13:30:32.540Z,26.63
2019-02-20T13:33:03.262Z,28.40
2019-02-20T13:35:33.931Z,20.73
2019-02-20T13:38:04.997Z,22.03
2019-02-20T13:40:35.890Z,18.60
2019-02-20T13:43:06.928Z,24.67
2019-02-20T13:45:37.801Z,27.60
2019-02-20T13:48:08.977Z,21.97
2019-02-20T13:50:39.668Z,21.80
2019-02-20T13:53:10.803Z,19.43
2019-02-20T13:55:42.209Z,15.37
2019-02-20T13:58:13.160Z,16.70
2019-02-20T14:00:43.981Z,20.10
2019-02-20T14:03:14.921Z,28.33
2019-02-20T14:05:45.715Z,26.60
2019-02-20T14:08:16.831Z,18.83
2019-02-20T14:10:47.787Z,17.53
2019-02-20T14:13:18.483Z,21.37
2019-02-20T14:15:50.690Z,31.07
2019-02-20T14:18:21.516Z,18.90
2019-02-20T14:20:52.529Z,19.00
2019-02-20T14:23:24.679Z,20.23
2019-02-20T14:25:55.300Z,21.60
2019-02-20T14:28:26.412Z,15.27
2019-02-20T14:30:57.465Z,16.87
2019-02-20T14:33:28.278Z,21.50
2019-02-20T14:35:59.424Z,20.90
2019-02-20T14:38:32.051Z,17.30
2019-02-20T14:41:03.198Z,14.57
2019-02-20T14:43:34.121Z,16.40
2019-02-20T14:46:05.101Z,16.13
2019-02-20T14:48:36.078Z,16.20
2019-02-20T14:51:08.073Z,14.97
2019-02-20T14:53:39.106Z,22.87
2019-02-20T14:56:10.369Z,13.43
2019-02-20T14:58:41.487Z,23.93
2019-02-20T15:01:13.199Z,21.33
2019-02-20T15:03:43.908Z,13.37
2019-02-20T15:06:14.849Z,19.00
2019-02-20T15:08:47.735Z,19.93
2019-02-20T15:11:18.446Z,14.10
2019-02-20T15:13:50.346Z,21.87
2019-02-20T15:16:21.340Z,17.60
2019-02-20T15:18:52.093Z,16.00
2019-02-20T15:21:23.209Z,14.43
2019-02-20T15:23:54.190Z,19.30
2019-02-20T15:26:24.938Z,19.10
2019-02-20T15:28:55.922Z,21.33
2019-02-20T15:31:33.379Z,16.73
2019-02-20T15:33:59.230Z,16.40
2019-02-20T15:36:30.095Z,14.00
2019-02-20T15:39:00.906Z,21.50
2019-02-20T15:41:33.748Z,15.63
2019-02-20T15:44:04.882Z,14.20
2019-02-20T15:46:36.139Z,13.57
2019-02-20T15:49:07.399Z,24.77
2019-02-20T15:51:38.410Z,19.20
2019-02-20T15:54:09.299Z,19.87
2019-02-20T15:56:40.118Z,19.13
2019-02-20T15:59:10.876Z,20.70
2019-02-20T16:01:41.826Z,14.57
2019-02-20T16:04:12.769Z,20.50
2019-02-20T16:06:44.413Z,22.50
2019-02-20T16:09:15.614Z,20.80
2019-02-20T16:11:46.560Z,18.27
2019-02-20T16:14:17.284Z,22.60
2019-02-20T16:16:49.077Z,17.87
2019-02-20T16:19:19.926Z,22.17
2019-02-20T16:21:50.973Z,18.27
2019-02-20T16:24:22.011Z,21.17
2019-02-20T16:26:53.201Z,22.30
2019-02-20T16:29:24.330Z,18.47
2019-02-20T16:31:55.196Z,23.80
2019-02-20T16:34:26.191Z,18.00
2019-02-20T16:36:58.199Z,19.00
2019-02-20T16:39:29.257Z,17.60
2019-02-20T16:42:01.999Z,30.80
2019-02-20T16:44:34.363Z,25.43
2019-02-20T16:47:07.011Z,16.80
2019-02-20T16:49:38.833Z,17.77
2019-02-20T16:52:10.655Z,32.77
2019-02-20T16:54:42.410Z,19.40
2019-02-20T16:57:14.462Z,29.43
2019-02-20T16:59:45.216Z,33.80
2019-02-20T17:02:15.922Z,19.90
2019-02-20T17:04:47.218Z,25.57
2019-02-20T17:07:19.623Z,18.30
2019-02-20T17:09:55.944Z,28.43
2019-02-20T17:12:30.423Z,28.70
2019-02-20T17:15:02.659Z,29.93
2019-02-20T17:17:35.883Z,28.23
2019-02-20T17:20:08.456Z,27.13
2019-02-20T17:22:39.255Z,24.97
2019-02-20T17:25:11.793Z,24.27
2019-02-20T17:27:42.792Z,22.73
2019-02-20T17:30:14.688Z,28.17
2019-02-20T17:32:46.021Z,27.90
2019-02-20T17:35:17.734Z,37.70
2019-02-20T17:37:48.660Z,30.37
2019-02-20T17:40:19.899Z,23.00
2019-02-20T17:42:53.010Z,37.07
2019-02-20T17:45:23.877Z,29.57
2019-02-20T17:47:55.419Z,35.50
2019-02-20T17:50:26.580Z,32.87
2019-02-20T17:52:57.195Z,27.40
2019-02-20T17:55:27.848Z,35.13
2019-02-20T17:57:58.865Z,29.40
2019-02-20T18:00:30.561Z,35.87
2019-02-20T18:03:01.828Z,34.63
2019-02-20T18:05:33.176Z,35.93
2019-02-20T18:08:04.496Z,22.57
2019-02-20T18:10:35.783Z,34.50
2019-02-20T18:13:06.805Z,29.80
2019-02-20T18:15:38.012Z,33.07
2019-02-20T18:18:09.209Z,26.93
2019-02-20T18:20:40.177Z,31.27
2019-02-20T18:23:10.862Z,41.43
2019-02-20T18:25:41.936Z,28.17
2019-02-20T18:28:12.821Z,41.70
2019-02-20T18:30:45.185Z,32.30
2019-02-20T18:33:16.371Z,35.87
2019-02-20T18:35:47.564Z,27.80
2019-02-20T18:38:18.734Z,26.63
2019-02-20T18:40:49.885Z,26.87
2019-02-20T18:43:21.839Z,35.07
2019-02-20T18:45:52.967Z,38.30
2019-02-20T18:48:24.221Z,47.40
2019-02-20T18:50:55.472Z,35.47
2019-02-20T18:53:26.142Z,25.90
2019-02-20T18:55:57.096Z,24.73
2019-02-20T18:58:33.923Z,32.60
2019-02-20T19:01:00.860Z,29.80
2019-02-20T19:03:32.076Z,28.13
2019-02-20T19:06:03.392Z,29.13
2019-02-20T19:08:42.830Z,24.80
2019-02-20T19:11:29.918Z,28.77
2019-02-20T19:14:23.642Z,25.63
2019-02-20T19:17:29.952Z,44.60
2019-02-20T19:20:15.551Z,54.63
2019-02-20T19:23:33.423Z,32.93
2019-02-20T19:26:30.408Z,28.40
2019-02-20T19:29:32.064Z,31.73
2019-02-20T19:32:30.353Z,31.67
2019-02-20T19:35:36.139Z,31.50
2019-02-20T19:38:41.221Z,38.13
2019-02-20T19:42:03.890Z,73.57
2019-02-20T19:45:00.465Z,39.10
2019-02-20T19:47:50.432Z,35.83
2019-02-20T19:50:41.252Z,36.87
2019-02-20T19:53:40.884Z,47.63
2019-02-20T19:56:53.552Z,35.03
2019-02-20T20:00:01.348Z,45.67
2019-02-20T20:03:00.386Z,51.27
2019-02-20T20:06:06.873Z,43.27
2019-02-20T20:09:25.055Z,39.70
2019-02-20T20:12:36.908Z,41.13
2019-02-20T20:15:57.585Z,32.50
2019-02-20T20:18:56.142Z,47.73
2019-02-20T20:22:00.982Z,32.33
2019-02-20T20:25:24.387Z,39.17
2019-02-20T20:28:22.590Z,44.53
2019-02-20T20:32:02.858Z,41.87
2019-02-20T20:35:16.174Z,40.00
2019-02-20T20:37:55.173Z,32.20
2019-02-20T20:40:35.195Z,36.67
2019-02-20T20:43:42.868Z,41.80
2019-02-20T20:46:30.828Z,34.17
2019-02-20T20:49:31.586Z,43.57
2019-02-20T20:52:55.461Z,44.83
2019-02-20T20:56:07.655Z,51.77
2019-02-20T20:59:37.563Z,45.57
2019-02-20T21:02:44.509Z,58.40
2019-02-20T21:05:56.161Z,54.00
2019-02-20T21:08:58.082Z,64.27
2019-02-20T21:12:01.421Z,72.33
2019-02-20T21:14:43.393Z,66.10
2019-02-20T21:17:46.749Z,65.80
2019-02-20T21:21:00.920Z,62.63
2019-02-20T21:23:56.101Z,67.33
2019-02-20T21:27:11.350Z,64.90
2019-02-20T21:30:28.338Z,67.33
2019-02-20T21:33:57.686Z,60.73
2019-02-20T21:37:12.235Z,66.90
2019-02-20T21:39:57.839Z,63.43
2019-02-20T21:43:07.150Z,72.97
2019-02-20T21:46:22.732Z,61.87
2019-02-20T21:49:34.867Z,59.90
2019-02-20T21:52:34.442Z,71.97
2019-02-20T21:55:31.202Z,67.80
2019-02-20T21:58:33.157Z,67.17
2019-02-20T22:01:22.565Z,64.67
2019-02-20T22:04:27.254Z,60.37
2019-02-20T22:07:36.595Z,67.40
2019-02-20T22:10:49.788Z,62.07
2019-02-20T22:13:35.875Z,76.37
2019-02-20T22:16:48.133Z,66.80
2019-02-20T22:19:45.306Z,74.37
2019-02-20T22:22:55.139Z,74.80
2019-02-20T22:25:55.917Z,60.23
2019-02-20T22:29:07.755Z,66.10
2019-02-20T22:32:19.601Z,71.40
2019-02-20T22:35:06.257Z,76.63
2019-02-20T22:38:08.679Z,81.87
2019-02-20T22:41:21.270Z,84.77
2019-02-20T22:44:29.498Z,83.57
2019-02-20T22:47:44.135Z,88.30
2019-02-20T22:50:40.051Z,89.80
2019-02-20T22:53:36.235Z,81.40
2019-02-20T22:56:56.150Z,83.23
2019-02-20T22:59:41.784Z,76.03
2019-02-20T23:03:05.989Z,63.80
2019-02-20T23:06:22.217Z,73.63
2019-02-20T23:09:18.192Z,68.63
2019-02-20T23:12:00.297Z,73.13
2019-02-20T23:14:41.049Z,64.17
2019-02-20T23:17:11.949Z,66.77
2019-02-20T23:19:42.740Z,64.43
2019-02-20T23:22:13.563Z,61.53
2019-02-20T23:24:45.112Z,53.03
2019-02-20T23:27:15.953Z,50.07
2019-02-20T23:29:46.715Z,58.43
2019-02-20T23:32:17.715Z,59.63
2019-02-20T23:34:48.565Z,63.30
2019-02-20T23:37:19.363Z,47.17
2019-02-20T23:39:49.945Z,56.83
2019-02-20T23:42:21.182Z,52.27
2019-02-20T23:44:51.809Z,55.43
2019-02-20T23:47:23.313Z,56.40
2019-02-20T23:49:56.565Z,49.23
2019-02-20T23:52:27.748Z,55.63
2019-02-20T23:54:59.000Z,60.53
2019-02-20T23:57:29.675Z,54.80
